sensor_id;sensor_type;location;lat;lon;timestamp;P1;durP1;ratioP1;P2;durP2;ratioP2
73100;SDS011;61288;53.446;-2.266;2023-02-24T00:01:40;12.65;;;4.15;;
73100;SDS011;61288;53.446;-2.266;2023-02-24T00:04:15;15.13;;;4.22;;
73100;SDS011;61288;53.446;-2.266;2023-02-24T00:06:44;14.27;;;3.55;;
73100;SDS011;61288;53.446;-2.266;2023-02-24T00:09:14;20.25;;;5.00;;
73100;SDS011;61288;53.446;-2.266;2023-02-24T00:11:55;14.48;;;3.80;;
73100;SDS011;61288;53.446;-2.266;2023-02-24T00:14:26;13.07;;;3.83;;
73100;SDS011;61288;53.446;-2.266;2023-02-24T00:16:55;23.67;;;4.88;;
73100;SDS011;61288;53.446;-2.266;2023-02-24T00:19:23;14.27;;;3.58;;
73100;SDS011;61288;53.446;-2.266;2023-02-24T00:21:51;14.25;;;3.60;;
73100;SDS011;61288;53.446;-2.266;2023-02-24T00:24:20;14.85;;;3.70;;
73100;SDS011;61288;53.446;-2.266;2023-02-24T00:26:50;11.88;;;3.88;;
73100;SDS011;61288;53.446;-2.266;2023-02-24T00:29:20;22.00;;;4.50;;
73100;SDS011;61288;53.446;-2.266;2023-02-24T00:31:55;12.30;;;3.90;;
73100;SDS011;61288;53.446;-2.266;2023-02-24T00:34:28;16.48;;;4.20;;
73100;SDS011;61288;53.446;-2.266;2023-02-24T00:36:54;17.85;;;3.88;;
73100;SDS011;61288;53.446;-2.266;2023-02-24T00:39:21;16.30;;;4.57;;
73100;SDS011;61288;53.446;-2.266;2023-02-24T00:41:55;15.73;;;3.95;;
73100;SDS011;61288;53.446;-2.266;2023-02-24T00:44:30;14.85;;;4.50;;
73100;SDS011;61288;53.446;-2.266;2023-02-24T00:47:00;12.20;;;3.88;;
73100;SDS011;61288;53.446;-2.266;2023-02-24T00:49:29;11.10;;;4.22;;
73100;SDS011;61288;53.446;-2.266;2023-02-24T00:51:56;11.70;;;3.70;;
73100;SDS011;61288;53.446;-2.266;2023-02-24T00:54:22;12.73;;;3.40;;
73100;SDS011;61288;53.446;-2.266;2023-02-24T00:56:52;18.88;;;3.75;;
73100;SDS011;61288;53.446;-2.266;2023-02-24T00:59:18;10.13;;;2.90;;
73100;SDS011;61288;53.446;-2.266;2023-02-24T01:01:45;12.27;;;3.72;;
73100;SDS011;61288;53.446;-2.266;2023-02-24T01:04:11;11.35;;;3.63;;
73100;SDS011;61288;53.446;-2.266;2023-02-24T01:06:41;14.70;;;3.80;;
73100;SDS011;61288;53.446;-2.266;2023-02-24T01:09:12;15.65;;;3.53;;
73100;SDS011;61288;53.446;-2.266;2023-02-24T01:11:41;13.75;;;3.28;;
73100;SDS011;61288;53.446;-2.266;2023-02-24T01:14:27;13.52;;;3.50;;
73100;SDS011;61288;53.446;-2.266;2023-02-24T01:17:01;13.25;;;3.33;;
73100;SDS011;61288;53.446;-2.266;2023-02-24T01:19:28;15.05;;;3.55;;
73100;SDS011;61288;53.446;-2.266;2023-02-24T01:21:59;11.90;;;3.35;;
73100;SDS011;61288;53.446;-2.266;2023-02-24T01:24:36;14.63;;;4.03;;
73100;SDS011;61288;53.446;-2.266;2023-02-24T01:27:12;14.55;;;3.15;;
73100;SDS011;61288;53.446;-2.266;2023-02-24T01:29:38;11.35;;;2.90;;
73100;SDS011;61288;53.446;-2.266;2023-02-24T01:32:05;11.77;;;2.95;;
73100;SDS011;61288;53.446;-2.266;2023-02-24T01:34:31;13.00;;;3.55;;
73100;SDS011;61288;53.446;-2.266;2023-02-24T01:36:59;14.73;;;3.63;;
73100;SDS011;61288;53.446;-2.266;2023-02-24T01:39:24;12.80;;;3.40;;
73100;SDS011;61288;53.446;-2.266;2023-02-24T01:41:50;9.85;;;2.90;;
73100;SDS011;61288;53.446;-2.266;2023-02-24T01:46:43;9.18;;;2.90;;
73100;SDS011;61288;53.446;-2.266;2023-02-24T01:49:17;11.63;;;3.20;;
73100;SDS011;61288;53.446;-2.266;2023-02-24T01:51:55;11.27;;;3.20;;
73100;SDS011;61288;53.446;-2.266;2023-02-24T01:54:30;12.98;;;3.38;;
73100;SDS011;61288;53.446;-2.266;2023-02-24T01:56:59;15.02;;;3.33;;
73100;SDS011;61288;53.446;-2.266;2023-02-24T01:59:28;11.32;;;3.13;;
73100;SDS011;61288;53.446;-2.266;2023-02-24T02:01:59;13.40;;;3.08;;
73100;SDS011;61288;53.446;-2.266;2023-02-24T02:04:30;15.55;;;3.35;;
73100;SDS011;61288;53.446;-2.266;2023-02-24T02:07:00;13.77;;;3.60;;
73100;SDS011;61288;53.446;-2.266;2023-02-24T02:09:26;14.07;;;3.85;;
73100;SDS011;61288;53.446;-2.266;2023-02-24T02:11:52;14.50;;;3.28;;
73100;SDS011;61288;53.446;-2.266;2023-02-24T02:14:18;14.63;;;3.67;;
73100;SDS011;61288;53.446;-2.266;2023-02-24T02:39:34;14.40;;;3.08;;
73100;SDS011;61288;53.446;-2.266;2023-02-24T02:45:04;14.52;;;3.10;;
73100;SDS011;61288;53.446;-2.266;2023-02-24T02:47:42;13.18;;;3.50;;
73100;SDS011;61288;53.446;-2.266;2023-02-24T02:52:55;13.18;;;2.85;;
73100;SDS011;61288;53.446;-2.266;2023-02-24T02:55:53;12.20;;;3.50;;
73100;SDS011;61288;53.446;-2.266;2023-02-24T02:58:26;15.68;;;2.72;;
73100;SDS011;61288;53.446;-2.266;2023-02-24T03:00:57;12.77;;;3.03;;
73100;SDS011;61288;53.446;-2.266;2023-02-24T03:06:05;14.60;;;2.55;;
73100;SDS011;61288;53.446;-2.266;2023-02-24T03:08:37;13.82;;;2.95;;
73100;SDS011;61288;53.446;-2.266;2023-02-24T03:11:08;13.38;;;2.97;;
73100;SDS011;61288;53.446;-2.266;2023-02-24T03:13:40;12.55;;;2.65;;
73100;SDS011;61288;53.446;-2.266;2023-02-24T03:16:09;14.48;;;3.60;;
73100;SDS011;61288;53.446;-2.266;2023-02-24T03:18:39;11.98;;;2.63;;
73100;SDS011;61288;53.446;-2.266;2023-02-24T03:21:10;18.33;;;3.38;;
73100;SDS011;61288;53.446;-2.266;2023-02-24T03:23:50;14.13;;;3.38;;
73100;SDS011;61288;53.446;-2.266;2023-02-24T03:31:21;15.30;;;3.28;;
73100;SDS011;61288;53.446;-2.266;2023-02-24T03:33:56;17.92;;;3.28;;
73100;SDS011;61288;53.446;-2.266;2023-02-24T03:36:32;15.32;;;2.97;;
73100;SDS011;61288;53.446;-2.266;2023-02-24T03:39:00;14.38;;;3.17;;
73100;SDS011;61288;53.446;-2.266;2023-02-24T03:41:30;17.83;;;3.65;;
73100;SDS011;61288;53.446;-2.266;2023-02-24T03:44:02;17.95;;;3.40;;
73100;SDS011;61288;53.446;-2.266;2023-02-24T03:46:31;15.13;;;3.60;;
73100;SDS011;61288;53.446;-2.266;2023-02-24T03:49:01;13.85;;;3.15;;
73100;SDS011;61288;53.446;-2.266;2023-02-24T03:51:40;17.27;;;4.80;;
73100;SDS011;61288;53.446;-2.266;2023-02-24T04:02:28;17.88;;;3.65;;
73100;SDS011;61288;53.446;-2.266;2023-02-24T04:05:02;16.08;;;3.05;;
73100;SDS011;61288;53.446;-2.266;2023-02-24T04:07:44;18.90;;;3.72;;
73100;SDS011;61288;53.446;-2.266;2023-02-24T04:10:23;11.38;;;3.03;;
73100;SDS011;61288;53.446;-2.266;2023-02-24T04:16:08;12.60;;;3.10;;
73100;SDS011;61288;53.446;-2.266;2023-02-24T04:18:52;12.75;;;3.03;;
73100;SDS011;61288;53.446;-2.266;2023-02-24T04:21:22;13.32;;;3.20;;
73100;SDS011;61288;53.446;-2.266;2023-02-24T04:23:52;12.90;;;2.80;;
73100;SDS011;61288;53.446;-2.266;2023-02-24T04:26:19;15.40;;;2.95;;
73100;SDS011;61288;53.446;-2.266;2023-02-24T04:28:48;19.25;;;3.40;;
73100;SDS011;61288;53.446;-2.266;2023-02-24T04:31:15;18.63;;;3.15;;
73100;SDS011;61288;53.446;-2.266;2023-02-24T04:33:44;21.17;;;3.83;;
73100;SDS011;61288;53.446;-2.266;2023-02-24T04:36:20;15.40;;;3.10;;
73100;SDS011;61288;53.446;-2.266;2023-02-24T04:38:46;21.85;;;3.85;;
73100;SDS011;61288;53.446;-2.266;2023-02-24T04:41:13;22.95;;;3.53;;
73100;SDS011;61288;53.446;-2.266;2023-02-24T04:43:45;18.80;;;4.00;;
73100;SDS011;61288;53.446;-2.266;2023-02-24T04:46:12;19.88;;;3.70;;
73100;SDS011;61288;53.446;-2.266;2023-02-24T04:48:37;16.98;;;2.88;;
73100;SDS011;61288;53.446;-2.266;2023-02-24T04:51:03;23.60;;;4.18;;
73100;SDS011;61288;53.446;-2.266;2023-02-24T04:53:32;22.52;;;4.15;;
73100;SDS011;61288;53.446;-2.266;2023-02-24T04:56:02;22.48;;;3.80;;
73100;SDS011;61288;53.446;-2.266;2023-02-24T04:58:34;19.23;;;3.38;;
73100;SDS011;61288;53.446;-2.266;2023-02-24T05:01:06;20.23;;;3.78;;
73100;SDS011;61288;53.446;-2.266;2023-02-24T05:03:34;14.73;;;3.33;;
73100;SDS011;61288;53.446;-2.266;2023-02-24T05:06:01;17.38;;;3.22;;
73100;SDS011;61288;53.446;-2.266;2023-02-24T05:08:28;23.15;;;3.10;;
73100;SDS011;61288;53.446;-2.266;2023-02-24T05:10:55;22.23;;;3.53;;
73100;SDS011;61288;53.446;-2.266;2023-02-24T05:13:23;20.02;;;3.47;;
73100;SDS011;61288;53.446;-2.266;2023-02-24T05:15:56;17.30;;;3.05;;
73100;SDS011;61288;53.446;-2.266;2023-02-24T05:18:31;15.77;;;3.50;;
73100;SDS011;61288;53.446;-2.266;2023-02-24T05:21:05;18.35;;;3.95;;
73100;SDS011;61288;53.446;-2.266;2023-02-24T05:23:51;20.67;;;3.03;;
73100;SDS011;61288;53.446;-2.266;2023-02-24T05:26:18;19.60;;;3.00;;
73100;SDS011;61288;53.446;-2.266;2023-02-24T05:28:46;19.08;;;3.08;;
73100;SDS011;61288;53.446;-2.266;2023-02-24T05:34:02;16.40;;;2.90;;
73100;SDS011;61288;53.446;-2.266;2023-02-24T05:36:32;16.40;;;3.40;;
73100;SDS011;61288;53.446;-2.266;2023-02-24T05:39:02;21.25;;;3.20;;
73100;SDS011;61288;53.446;-2.266;2023-02-24T05:41:37;17.42;;;3.65;;
73100;SDS011;61288;53.446;-2.266;2023-02-24T05:44:15;23.67;;;3.90;;
73100;SDS011;61288;53.446;-2.266;2023-02-24T05:46:48;15.00;;;3.05;;
73100;SDS011;61288;53.446;-2.266;2023-02-24T05:49:20;25.20;;;3.95;;
73100;SDS011;61288;53.446;-2.266;2023-02-24T05:51:51;24.67;;;4.57;;
73100;SDS011;61288;53.446;-2.266;2023-02-24T05:54:24;21.45;;;3.42;;
73100;SDS011;61288;53.446;-2.266;2023-02-24T05:57:03;16.77;;;3.10;;
73100;SDS011;61288;53.446;-2.266;2023-02-24T05:59:32;16.65;;;2.83;;
73100;SDS011;61288;53.446;-2.266;2023-02-24T06:01:58;18.45;;;3.35;;
73100;SDS011;61288;53.446;-2.266;2023-02-24T06:04:26;22.95;;;4.13;;
73100;SDS011;61288;53.446;-2.266;2023-02-24T06:07:25;18.08;;;3.75;;
73100;SDS011;61288;53.446;-2.266;2023-02-24T06:09:53;16.10;;;3.05;;
73100;SDS011;61288;53.446;-2.266;2023-02-24T06:12:22;24.70;;;3.85;;
73100;SDS011;61288;53.446;-2.266;2023-02-24T06:14:56;21.73;;;3.55;;
73100;SDS011;61288;53.446;-2.266;2023-02-24T06:17:22;22.67;;;4.45;;
73100;SDS011;61288;53.446;-2.266;2023-02-24T06:19:49;19.00;;;3.45;;
73100;SDS011;61288;53.446;-2.266;2023-02-24T06:22:17;17.75;;;3.60;;
73100;SDS011;61288;53.446;-2.266;2023-02-24T06:24:45;21.63;;;3.33;;
73100;SDS011;61288;53.446;-2.266;2023-02-24T06:27:14;22.10;;;3.90;;
73100;SDS011;61288;53.446;-2.266;2023-02-24T06:29:46;24.52;;;3.83;;
73100;SDS011;61288;53.446;-2.266;2023-02-24T06:32:14;20.67;;;3.40;;
73100;SDS011;61288;53.446;-2.266;2023-02-24T06:34:41;14.98;;;3.35;;
73100;SDS011;61288;53.446;-2.266;2023-02-24T06:37:07;18.20;;;3.60;;
73100;SDS011;61288;53.446;-2.266;2023-02-24T06:39:34;14.57;;;3.58;;
73100;SDS011;61288;53.446;-2.266;2023-02-24T06:42:00;21.98;;;3.83;;
73100;SDS011;61288;53.446;-2.266;2023-02-24T06:44:33;16.38;;;3.15;;
73100;SDS011;61288;53.446;-2.266;2023-02-24T06:46:59;20.58;;;3.92;;
73100;SDS011;61288;53.446;-2.266;2023-02-24T06:49:25;17.83;;;3.60;;
73100;SDS011;61288;53.446;-2.266;2023-02-24T06:51:51;19.17;;;3.55;;
73100;SDS011;61288;53.446;-2.266;2023-02-24T06:54:19;19.02;;;3.58;;
73100;SDS011;61288;53.446;-2.266;2023-02-24T06:56:54;17.13;;;3.10;;
73100;SDS011;61288;53.446;-2.266;2023-02-24T06:59:22;26.42;;;4.15;;
73100;SDS011;61288;53.446;-2.266;2023-02-24T07:04:22;20.90;;;3.17;;
73100;SDS011;61288;53.446;-2.266;2023-02-24T07:06:58;21.10;;;3.88;;
73100;SDS011;61288;53.446;-2.266;2023-02-24T07:09:27;21.33;;;3.83;;
73100;SDS011;61288;53.446;-2.266;2023-02-24T07:11:55;19.38;;;3.08;;
73100;SDS011;61288;53.446;-2.266;2023-02-24T07:14:24;24.27;;;4.20;;
73100;SDS011;61288;53.446;-2.266;2023-02-24T07:16:52;14.30;;;2.80;;
73100;SDS011;61288;53.446;-2.266;2023-02-24T07:19:19;19.73;;;3.90;;
73100;SDS011;61288;53.446;-2.266;2023-02-24T07:21:46;21.35;;;4.10;;
73100;SDS011;61288;53.446;-2.266;2023-02-24T07:24:17;22.08;;;4.10;;
73100;SDS011;61288;53.446;-2.266;2023-02-24T07:26:58;18.13;;;3.17;;
73100;SDS011;61288;53.446;-2.266;2023-02-24T07:29:25;17.13;;;2.95;;
73100;SDS011;61288;53.446;-2.266;2023-02-24T07:31:52;14.20;;;2.85;;
73100;SDS011;61288;53.446;-2.266;2023-02-24T07:34:22;15.48;;;2.75;;
73100;SDS011;61288;53.446;-2.266;2023-02-24T07:36:52;19.77;;;3.47;;
73100;SDS011;61288;53.446;-2.266;2023-02-24T07:39:19;16.02;;;3.08;;
73100;SDS011;61288;53.446;-2.266;2023-02-24T07:41:51;18.25;;;3.47;;
73100;SDS011;61288;53.446;-2.266;2023-02-24T07:44:21;11.02;;;2.60;;
73100;SDS011;61288;53.446;-2.266;2023-02-24T07:46:50;13.55;;;2.50;;
73100;SDS011;61288;53.446;-2.266;2023-02-24T07:49:18;18.27;;;2.90;;
73100;SDS011;61288;53.446;-2.266;2023-02-24T07:51:46;18.85;;;2.88;;
73100;SDS011;61288;53.446;-2.266;2023-02-24T07:54:20;14.35;;;3.42;;
73100;SDS011;61288;53.446;-2.266;2023-02-24T07:56:48;16.50;;;2.83;;
73100;SDS011;61288;53.446;-2.266;2023-02-24T07:59:30;16.83;;;3.65;;
73100;SDS011;61288;53.446;-2.266;2023-02-24T08:01:57;15.80;;;3.83;;
73100;SDS011;61288;53.446;-2.266;2023-02-24T08:04:26;20.33;;;2.53;;
73100;SDS011;61288;53.446;-2.266;2023-02-24T08:06:53;17.77;;;2.67;;
73100;SDS011;61288;53.446;-2.266;2023-02-24T08:09:24;13.57;;;2.50;;
73100;SDS011;61288;53.446;-2.266;2023-02-24T08:12:13;16.95;;;3.30;;
73100;SDS011;61288;53.446;-2.266;2023-02-24T08:14:45;16.90;;;3.25;;
73100;SDS011;61288;53.446;-2.266;2023-02-24T08:17:15;17.92;;;2.88;;
73100;SDS011;61288;53.446;-2.266;2023-02-24T08:19:45;16.75;;;2.97;;
73100;SDS011;61288;53.446;-2.266;2023-02-24T08:22:12;15.48;;;2.50;;
73100;SDS011;61288;53.446;-2.266;2023-02-24T08:24:54;15.38;;;2.95;;
73100;SDS011;61288;53.446;-2.266;2023-02-24T08:27:25;10.73;;;2.50;;
73100;SDS011;61288;53.446;-2.266;2023-02-24T08:29:54;17.60;;;2.92;;
73100;SDS011;61288;53.446;-2.266;2023-02-24T08:35:08;11.65;;;2.35;;
73100;SDS011;61288;53.446;-2.266;2023-02-24T08:37:40;12.60;;;2.15;;
73100;SDS011;61288;53.446;-2.266;2023-02-24T08:42:56;11.10;;;2.42;;
73100;SDS011;61288;53.446;-2.266;2023-02-24T08:45:45;16.83;;;2.42;;
73100;SDS011;61288;53.446;-2.266;2023-02-24T08:48:22;16.77;;;2.85;;
73100;SDS011;61288;53.446;-2.266;2023-02-24T08:50:55;14.73;;;2.53;;
73100;SDS011;61288;53.446;-2.266;2023-02-24T08:53:22;17.90;;;3.28;;
73100;SDS011;61288;53.446;-2.266;2023-02-24T08:55:52;13.55;;;2.28;;
73100;SDS011;61288;53.446;-2.266;2023-02-24T08:58:18;11.90;;;2.17;;
73100;SDS011;61288;53.446;-2.266;2023-02-24T09:00:44;11.23;;;2.17;;
73100;SDS011;61288;53.446;-2.266;2023-02-24T09:03:14;12.55;;;2.20;;
73100;SDS011;61288;53.446;-2.266;2023-02-24T09:06:03;16.63;;;2.85;;
73100;SDS011;61288;53.446;-2.266;2023-02-24T09:08:29;12.35;;;2.25;;
73100;SDS011;61288;53.446;-2.266;2023-02-24T09:11:04;14.88;;;2.55;;
73100;SDS011;61288;53.446;-2.266;2023-02-24T09:13:33;18.00;;;2.72;;
73100;SDS011;61288;53.446;-2.266;2023-02-24T09:16:07;14.52;;;2.60;;
73100;SDS011;61288;53.446;-2.266;2023-02-24T09:18:40;12.68;;;2.38;;
73100;SDS011;61288;53.446;-2.266;2023-02-24T09:21:08;14.43;;;2.22;;
73100;SDS011;61288;53.446;-2.266;2023-02-24T09:23:54;17.77;;;2.60;;
73100;SDS011;61288;53.446;-2.266;2023-02-24T09:26:20;11.75;;;2.10;;
73100;SDS011;61288;53.446;-2.266;2023-02-24T09:28:46;18.55;;;2.90;;
73100;SDS011;61288;53.446;-2.266;2023-02-24T09:31:20;13.73;;;2.22;;
73100;SDS011;61288;53.446;-2.266;2023-02-24T09:34:06;10.35;;;2.85;;
73100;SDS011;61288;53.446;-2.266;2023-02-24T09:36:35;16.27;;;3.25;;
73100;SDS011;61288;53.446;-2.266;2023-02-24T09:39:09;13.93;;;2.75;;
73100;SDS011;61288;53.446;-2.266;2023-02-24T09:44:45;12.43;;;2.20;;
73100;SDS011;61288;53.446;-2.266;2023-02-24T09:50:21;12.95;;;2.20;;
73100;SDS011;61288;53.446;-2.266;2023-02-24T09:53:13;12.43;;;2.35;;
73100;SDS011;61288;53.446;-2.266;2023-02-24T10:03:49;10.15;;;2.08;;
73100;SDS011;61288;53.446;-2.266;2023-02-24T10:11:59;11.45;;;1.90;;
73100;SDS011;61288;53.446;-2.266;2023-02-24T10:17:13;14.98;;;2.47;;
73100;SDS011;61288;53.446;-2.266;2023-02-24T10:20:35;9.23;;;1.98;;
73100;SDS011;61288;53.446;-2.266;2023-02-24T10:25:28;13.45;;;2.15;;
73100;SDS011;61288;53.446;-2.266;2023-02-24T10:30:49;13.63;;;2.55;;
73100;SDS011;61288;53.446;-2.266;2023-02-24T10:33:54;12.80;;;2.25;;
73100;SDS011;61288;53.446;-2.266;2023-02-24T10:36:24;14.60;;;2.13;;
73100;SDS011;61288;53.446;-2.266;2023-02-24T10:39:00;12.05;;;2.25;;
73100;SDS011;61288;53.446;-2.266;2023-02-24T10:41:51;14.68;;;2.22;;
73100;SDS011;61288;53.446;-2.266;2023-02-24T10:44:42;14.63;;;2.25;;
73100;SDS011;61288;53.446;-2.266;2023-02-24T10:47:23;7.75;;;1.50;;
73100;SDS011;61288;53.446;-2.266;2023-02-24T10:50:01;9.93;;;1.98;;
73100;SDS011;61288;53.446;-2.266;2023-02-24T10:52:35;8.80;;;1.70;;
73100;SDS011;61288;53.446;-2.266;2023-02-24T10:55:22;7.85;;;1.70;;
73100;SDS011;61288;53.446;-2.266;2023-02-24T10:58:13;10.07;;;1.63;;
73100;SDS011;61288;53.446;-2.266;2023-02-24T11:00:47;7.53;;;1.52;;
73100;SDS011;61288;53.446;-2.266;2023-02-24T11:03:26;11.98;;;3.08;;
73100;SDS011;61288;53.446;-2.266;2023-02-24T11:06:19;9.18;;;2.42;;
73100;SDS011;61288;53.446;-2.266;2023-02-24T11:09:19;9.75;;;2.22;;
73100;SDS011;61288;53.446;-2.266;2023-02-24T11:11:52;6.18;;;1.63;;
73100;SDS011;61288;53.446;-2.266;2023-02-24T11:14:53;7.55;;;1.35;;
73100;SDS011;61288;53.446;-2.266;2023-02-24T11:17:56;8.15;;;1.65;;
73100;SDS011;61288;53.446;-2.266;2023-02-24T11:20:26;9.13;;;2.13;;
73100;SDS011;61288;53.446;-2.266;2023-02-24T11:23:00;8.07;;;1.45;;
73100;SDS011;61288;53.446;-2.266;2023-02-24T11:39:17;6.18;;;1.65;;
73100;SDS011;61288;53.446;-2.266;2023-02-24T11:41:58;6.57;;;1.80;;
73100;SDS011;61288;53.446;-2.266;2023-02-24T11:44:29;5.10;;;1.50;;
73100;SDS011;61288;53.446;-2.266;2023-02-24T11:47:06;5.05;;;1.48;;
73100;SDS011;61288;53.446;-2.266;2023-02-24T11:49:42;5.55;;;1.30;;
73100;SDS011;61288;53.446;-2.266;2023-02-24T11:55:26;7.97;;;1.83;;
73100;SDS011;61288;53.446;-2.266;2023-02-24T11:57:58;7.90;;;2.00;;
73100;SDS011;61288;53.446;-2.266;2023-02-24T12:01:00;7.88;;;1.80;;
73100;SDS011;61288;53.446;-2.266;2023-02-24T12:06:50;10.02;;;2.08;;
73100;SDS011;61288;53.446;-2.266;2023-02-24T12:09:17;5.32;;;1.45;;
73100;SDS011;61288;53.446;-2.266;2023-02-24T12:17:25;9.88;;;1.50;;
73100;SDS011;61288;53.446;-2.266;2023-02-24T12:20:05;6.60;;;1.60;;
73100;SDS011;61288;53.446;-2.266;2023-02-24T12:22:43;7.55;;;1.50;;
73100;SDS011;61288;53.446;-2.266;2023-02-24T12:25:13;6.35;;;1.40;;
73100;SDS011;61288;53.446;-2.266;2023-02-24T12:27:42;6.25;;;1.50;;
73100;SDS011;61288;53.446;-2.266;2023-02-24T12:39:01;7.10;;;1.40;;
73100;SDS011;61288;53.446;-2.266;2023-02-24T12:50:19;8.80;;;1.42;;
73100;SDS011;61288;53.446;-2.266;2023-02-24T12:58:32;8.45;;;2.00;;
73100;SDS011;61288;53.446;-2.266;2023-02-24T13:01:21;10.45;;;1.40;;
73100;SDS011;61288;53.446;-2.266;2023-02-24T13:09:37;7.20;;;1.60;;
73100;SDS011;61288;53.446;-2.266;2023-02-24T13:14:52;5.93;;;1.60;;
73100;SDS011;61288;53.446;-2.266;2023-02-24T13:17:19;6.88;;;1.80;;
73100;SDS011;61288;53.446;-2.266;2023-02-24T13:19:51;7.13;;;1.63;;
73100;SDS011;61288;53.446;-2.266;2023-02-24T13:22:25;6.88;;;1.42;;
73100;SDS011;61288;53.446;-2.266;2023-02-24T13:24:57;9.25;;;1.80;;
73100;SDS011;61288;53.446;-2.266;2023-02-24T13:27:33;6.10;;;1.42;;
73100;SDS011;61288;53.446;-2.266;2023-02-24T13:30:24;8.23;;;1.85;;
73100;SDS011;61288;53.446;-2.266;2023-02-24T13:33:03;8.55;;;2.42;;
73100;SDS011;61288;53.446;-2.266;2023-02-24T13:35:41;8.85;;;1.90;;
73100;SDS011;61288;53.446;-2.266;2023-02-24T13:38:33;12.63;;;2.78;;
73100;SDS011;61288;53.446;-2.266;2023-02-24T13:43:52;10.02;;;2.10;;
73100;SDS011;61288;53.446;-2.266;2023-02-24T13:55:07;9.15;;;1.88;;
73100;SDS011;61288;53.446;-2.266;2023-02-24T14:03:21;10.30;;;2.17;;
73100;SDS011;61288;53.446;-2.266;2023-02-24T14:05:51;9.63;;;2.50;;
73100;SDS011;61288;53.446;-2.266;2023-02-24T14:08:22;10.93;;;2.47;;
73100;SDS011;61288;53.446;-2.266;2023-02-24T14:11:10;10.23;;;2.60;;
73100;SDS011;61288;53.446;-2.266;2023-02-24T14:13:39;12.50;;;2.70;;
73100;SDS011;61288;53.446;-2.266;2023-02-24T14:16:13;9.98;;;2.17;;
73100;SDS011;61288;53.446;-2.266;2023-02-24T14:21:20;11.77;;;2.67;;
73100;SDS011;61288;53.446;-2.266;2023-02-24T14:23:53;9.52;;;2.17;;
73100;SDS011;61288;53.446;-2.266;2023-02-24T14:26:31;9.27;;;2.10;;
73100;SDS011;61288;53.446;-2.266;2023-02-24T14:29:06;10.95;;;2.30;;
73100;SDS011;61288;53.446;-2.266;2023-02-24T14:31:33;8.15;;;1.98;;
73100;SDS011;61288;53.446;-2.266;2023-02-24T14:34:00;8.63;;;1.60;;
73100;SDS011;61288;53.446;-2.266;2023-02-24T14:36:29;8.35;;;1.90;;
73100;SDS011;61288;53.446;-2.266;2023-02-24T14:39:05;8.90;;;1.83;;
73100;SDS011;61288;53.446;-2.266;2023-02-24T14:41:34;8.00;;;1.70;;
73100;SDS011;61288;53.446;-2.266;2023-02-24T14:47:03;6.55;;;1.65;;
73100;SDS011;61288;53.446;-2.266;2023-02-24T14:49:34;7.43;;;1.60;;
73100;SDS011;61288;53.446;-2.266;2023-02-24T14:52:17;6.90;;;1.83;;
73100;SDS011;61288;53.446;-2.266;2023-02-24T14:57:27;15.20;;;2.55;;
73100;SDS011;61288;53.446;-2.266;2023-02-24T15:00:19;12.35;;;2.00;;
73100;SDS011;61288;53.446;-2.266;2023-02-24T15:03:09;8.30;;;2.67;;
73100;SDS011;61288;53.446;-2.266;2023-02-24T15:05:47;9.80;;;2.38;;
73100;SDS011;61288;53.446;-2.266;2023-02-24T15:10:49;12.43;;;2.70;;
73100;SDS011;61288;53.446;-2.266;2023-02-24T15:13:17;11.82;;;2.65;;
73100;SDS011;61288;53.446;-2.266;2023-02-24T15:16:44;8.85;;;2.47;;
73100;SDS011;61288;53.446;-2.266;2023-02-24T15:19:16;8.20;;;2.53;;
73100;SDS011;61288;53.446;-2.266;2023-02-24T15:21:49;7.90;;;2.38;;
73100;SDS011;61288;53.446;-2.266;2023-02-24T15:24:19;9.90;;;2.25;;
73100;SDS011;61288;53.446;-2.266;2023-02-24T15:26:54;11.60;;;2.40;;
73100;SDS011;61288;53.446;-2.266;2023-02-24T15:29:23;9.20;;;2.35;;
73100;SDS011;61288;53.446;-2.266;2023-02-24T15:31:52;10.18;;;2.30;;
73100;SDS011;61288;53.446;-2.266;2023-02-24T15:34:20;9.48;;;2.50;;
73100;SDS011;61288;53.446;-2.266;2023-02-24T15:36:49;9.98;;;2.55;;
73100;SDS011;61288;53.446;-2.266;2023-02-24T15:39:20;10.57;;;2.55;;
73100;SDS011;61288;53.446;-2.266;2023-02-24T15:41:49;10.57;;;2.63;;
73100;SDS011;61288;53.446;-2.266;2023-02-24T15:44:29;11.63;;;2.47;;
73100;SDS011;61288;53.446;-2.266;2023-02-24T15:46:57;11.00;;;2.28;;
73100;SDS011;61288;53.446;-2.266;2023-02-24T15:49:24;11.68;;;2.22;;
73100;SDS011;61288;53.446;-2.266;2023-02-24T15:51:51;8.38;;;2.55;;
73100;SDS011;61288;53.446;-2.266;2023-02-24T15:57:00;9.80;;;2.58;;
73100;SDS011;61288;53.446;-2.266;2023-02-24T15:59:27;10.05;;;2.58;;
73100;SDS011;61288;53.446;-2.266;2023-02-24T16:01:53;11.93;;;3.15;;
73100;SDS011;61288;53.446;-2.266;2023-02-24T16:04:21;10.25;;;2.65;;
73100;SDS011;61288;53.446;-2.266;2023-02-24T16:06:52;11.48;;;2.83;;
73100;SDS011;61288;53.446;-2.266;2023-02-24T16:09:31;11.07;;;2.95;;
73100;SDS011;61288;53.446;-2.266;2023-02-24T16:12:04;11.30;;;2.85;;
73100;SDS011;61288;53.446;-2.266;2023-02-24T16:14:34;12.23;;;3.08;;
73100;SDS011;61288;53.446;-2.266;2023-02-24T16:17:01;12.48;;;2.50;;
73100;SDS011;61288;53.446;-2.266;2023-02-24T16:21:56;7.50;;;2.17;;
73100;SDS011;61288;53.446;-2.266;2023-02-24T16:24:22;8.20;;;2.10;;
73100;SDS011;61288;53.446;-2.266;2023-02-24T16:26:48;9.98;;;2.30;;
73100;SDS011;61288;53.446;-2.266;2023-02-24T16:29:13;9.07;;;2.33;;
73100;SDS011;61288;53.446;-2.266;2023-02-24T16:31:39;8.63;;;2.10;;
73100;SDS011;61288;53.446;-2.266;2023-02-24T16:34:06;8.35;;;2.00;;
73100;SDS011;61288;53.446;-2.266;2023-02-24T16:36:38;11.52;;;2.78;;
73100;SDS011;61288;53.446;-2.266;2023-02-24T16:39:03;13.27;;;2.92;;
73100;SDS011;61288;53.446;-2.266;2023-02-24T16:41:30;10.32;;;3.13;;
73100;SDS011;61288;53.446;-2.266;2023-02-24T16:43:56;11.77;;;3.40;;
73100;SDS011;61288;53.446;-2.266;2023-02-24T16:46:21;13.98;;;3.65;;
73100;SDS011;61288;53.446;-2.266;2023-02-24T16:48:48;14.07;;;3.80;;
73100;SDS011;61288;53.446;-2.266;2023-02-24T16:51:17;13.18;;;3.90;;
73100;SDS011;61288;53.446;-2.266;2023-02-24T16:53:42;13.98;;;3.95;;
73100;SDS011;61288;53.446;-2.266;2023-02-24T16:56:08;14.20;;;3.95;;
73100;SDS011;61288;53.446;-2.266;2023-02-24T16:58:34;10.90;;;3.20;;
73100;SDS011;61288;53.446;-2.266;2023-02-24T17:01:00;11.88;;;3.53;;
73100;SDS011;61288;53.446;-2.266;2023-02-24T17:03:30;12.32;;;3.13;;
73100;SDS011;61288;53.446;-2.266;2023-02-24T17:06:02;11.55;;;3.30;;
73100;SDS011;61288;53.446;-2.266;2023-02-24T17:08:27;11.50;;;2.97;;
73100;SDS011;61288;53.446;-2.266;2023-02-24T17:10:53;12.45;;;3.38;;
73100;SDS011;61288;53.446;-2.266;2023-02-24T17:13:20;10.93;;;2.80;;
73100;SDS011;61288;53.446;-2.266;2023-02-24T17:15:46;11.13;;;2.85;;
73100;SDS011;61288;53.446;-2.266;2023-02-24T17:18:14;9.50;;;2.83;;
73100;SDS011;61288;53.446;-2.266;2023-02-24T17:20:39;10.07;;;2.45;;
73100;SDS011;61288;53.446;-2.266;2023-02-24T17:23:08;7.95;;;2.22;;
73100;SDS011;61288;53.446;-2.266;2023-02-24T17:25:35;8.07;;;2.30;;
73100;SDS011;61288;53.446;-2.266;2023-02-24T17:28:01;10.68;;;2.53;;
73100;SDS011;61288;53.446;-2.266;2023-02-24T17:30:28;9.75;;;2.63;;
73100;SDS011;61288;53.446;-2.266;2023-02-24T17:32:57;8.63;;;2.90;;
73100;SDS011;61288;53.446;-2.266;2023-02-24T17:35:23;10.63;;;3.42;;
73100;SDS011;61288;53.446;-2.266;2023-02-24T17:37:50;13.82;;;3.53;;
73100;SDS011;61288;53.446;-2.266;2023-02-24T17:40:17;12.07;;;3.08;;
73100;SDS011;61288;53.446;-2.266;2023-02-24T17:42:43;14.18;;;3.50;;
73100;SDS011;61288;53.446;-2.266;2023-02-24T17:45:09;13.93;;;4.13;;
73100;SDS011;61288;53.446;-2.266;2023-02-24T17:47:37;15.05;;;3.80;;
73100;SDS011;61288;53.446;-2.266;2023-02-24T17:50:04;11.95;;;4.22;;
73100;SDS011;61288;53.446;-2.266;2023-02-24T17:52:30;14.98;;;4.50;;